Time;durP1;ratioP1;P1;durP2;ratioP2;P2;SDS_P1;SDS_P2;PMS_P1;PMS_P2;Temp;Humidity;BMP_temperature;BMP_pressure;BME280_temperature;BME280_humidity;BME280_pressure;Samples;Min_cycle;Max_cycle;Signal;HPM_P1;HPM_P2
2020/12/14 00:01:04;;;;;;;2.35;2.15;;;5.20;99.90;;;;;;5074807;28;20032;-81
2020/12/14 00:03:32;;;;;;;2.38;2.20;;;5.20;99.90;;;;;;5075169;28;20099;-81
2020/12/14 00:05:57;;;;;;;2.55;2.35;;;5.10;99.90;;;;;;5076278;28;20025;-80
2020/12/14 00:08:23;;;;;;;2.55;2.08;;;5.10;99.90;;;;;;5114888;28;20076;-81
2020/12/14 00:10:48;;;;;;;4.35;2.67;;;5.10;99.90;;;;;;5115624;28;20023;-81
2020/12/14 00:13:14;;;;;;;3.15;1.98;;;5.10;99.90;;;;;;5097237;28;20082;-81
2020/12/14 00:15:40;;;;;;;3.13;2.20;;;5.10;99.90;;;;;;5095113;28;20046;-81
2020/12/14 00:18:05;;;;;;;1.85;1.75;;;5.10;99.90;;;;;;5095061;28;20443;-81
2020/12/14 00:20:31;;;;;;;3.00;1.95;;;5.10;99.90;;;;;;5095029;28;20115;-81
2020/12/14 00:22:56;;;;;;;3.72;1.98;;;5.10;99.90;;;;;;5076698;28;20059;-81
2020/12/14 00:25:22;;;;;;;2.50;2.30;;;5.00;99.90;;;;;;5076570;28;20044;-80
2020/12/14 00:27:48;;;;;;;2.72;2.47;;;5.00;99.90;;;;;;5094839;28;20074;-81
2020/12/14 00:30:13;;;;;;;2.08;1.88;;;5.10;99.90;;;;;;5094631;28;20017;-81
2020/12/14 00:32:39;;;;;;;4.20;2.03;;;5.10;99.90;;;;;;5076751;28;20059;-81
2020/12/14 00:35:05;;;;;;;2.30;2.10;;;5.00;99.90;;;;;;5076292;28;20043;-81
2020/12/14 00:37:31;;;;;;;2.38;2.15;;;5.10;99.90;;;;;;5094613;28;20020;-81
2020/12/14 00:39:56;;;;;;;2.33;2.05;;;5.10;99.90;;;;;;5076000;28;20430;-81
2020/12/14 00:42:22;;;;;;;2.47;2.03;;;5.10;99.90;;;;;;5094485;28;20024;-81
2020/12/14 00:44:47;;;;;;;3.63;2.13;;;5.10;99.90;;;;;;5094163;28;20160;-81
2020/12/14 00:47:16;;;;;;;1.90;1.67;;;5.10;99.90;;;;;;5094531;28;20063;-81
2020/12/14 00:49:43;;;;;;;2.70;2.50;;;5.10;99.90;;;;;;5094362;28;20038;-81
2020/12/14 00:52:09;;;;;;;2.45;2.25;;;5.10;99.90;;;;;;5094394;28;20025;-81
2020/12/14 00:54:34;;;;;;;2.13;1.92;;;5.10;99.90;;;;;;5094019;28;20035;-81
2020/12/14 00:57:00;;;;;;;3.97;1.90;;;5.20;99.90;;;;;;5094254;28;20024;-81
2020/12/14 00:59:26;;;;;;;1.83;1.73;;;5.10;99.90;;;;;;5094215;28;20069;-80
2020/12/14 01:01:52;;;;;;;2.30;2.15;;;5.10;99.90;;;;;;5083808;28;20123;-81
2020/12/14 01:04:20;;;;;;;2.15;1.88;;;5.10;99.90;;;;;;5088358;28;20483;-81
2020/12/14 01:06:45;;;;;;;2.30;1.92;;;5.10;99.90;;;;;;5093812;28;20388;-81
2020/12/14 01:09:12;;;;;;;2.00;1.88;;;5.10;99.90;;;;;;5075789;28;20035;-81
2020/12/14 01:11:38;;;;;;;3.08;1.75;;;5.10;99.90;;;;;;5094165;28;20070;-81
2020/12/14 01:14:04;;;;;;;2.13;1.98;;;5.20;99.90;;;;;;5075805;28;20031;-81
2020/12/14 01:16:29;;;;;;;2.97;2.17;;;5.10;99.90;;;;;;5093366;28;20028;-81
2020/12/14 01:18:55;;;;;;;1.95;1.85;;;5.20;99.90;;;;;;5093679;28;20032;-81
2020/12/14 01:21:22;;;;;;;1.65;1.55;;;5.10;99.90;;;;;;5093734;28;20082;-81
2020/12/14 01:23:48;;;;;;;2.03;1.77;;;5.10;99.90;;;;;;5093808;28;20387;-81
2020/12/14 01:26:14;;;;;;;3.92;1.92;;;5.10;99.90;;;;;;5108827;28;20704;-81
2020/12/14 01:28:39;;;;;;;1.63;1.52;;;5.20;99.90;;;;;;5114014;28;20160;-81
2020/12/14 01:31:05;;;;;;;1.90;1.80;;;5.20;99.90;;;;;;5113686;28;20642;-81
2020/12/14 01:33:31;;;;;;;1.92;1.83;;;5.10;99.90;;;;;;5114006;28;20027;-81
2020/12/14 01:35:56;;;;;;;2.28;2.08;;;5.10;99.90;;;;;;5113747;28;20475;-81
2020/12/14 01:38:22;;;;;;;3.20;1.60;;;5.10;99.90;;;;;;5113619;28;20546;-81
2020/12/14 01:40:48;;;;;;;2.13;1.88;;;5.10;99.90;;;;;;5113872;28;20479;-81
2020/12/14 01:43:13;;;;;;;2.50;1.85;;;5.10;99.90;;;;;;5095408;28;20033;-81
2020/12/14 01:45:39;;;;;;;1.70;1.60;;;5.20;99.90;;;;;;5113338;28;20031;-81
2020/12/14 01:48:07;;;;;;;1.60;1.50;;;5.20;99.90;;;;;;5095061;28;20027;-81
2020/12/14 01:50:35;;;;;;;1.40;1.35;;;5.20;99.90;;;;;;5113208;28;20137;-81
2020/12/14 01:53:02;;;;;;;1.50;1.40;;;5.20;99.90;;;;;;5113213;28;20110;-81
2020/12/14 01:55:46;;;;;;;2.10;2.00;;;5.20;99.90;;;;;;5093962;28;20035;-81
2020/12/14 01:58:12;;;;;;;1.95;1.58;;;5.10;99.90;;;;;;5112028;28;20108;-81
2020/12/14 02:00:38;;;;;;;1.80;1.70;;;5.10;99.90;;;;;;5095027;28;20475;-81
2020/12/14 02:03:04;;;;;;;1.67;1.58;;;5.10;99.90;;;;;;5113514;28;20024;-81
2020/12/14 02:05:30;;;;;;;1.63;1.52;;;5.20;99.90;;;;;;5113133;28;20026;-81
2020/12/14 02:07:55;;;;;;;3.08;1.50;;;5.10;99.90;;;;;;5113415;28;20024;-81
2020/12/14 02:10:21;;;;;;;2.00;1.90;;;5.20;99.90;;;;;;5113027;28;20034;-81
2020/12/14 02:12:48;;;;;;;2.00;1.90;;;5.20;99.90;;;;;;5113495;28;20031;-81
2020/12/14 02:15:14;;;;;;;1.50;1.40;;;5.20;99.90;;;;;;5113128;28;20015;-81
2020/12/14 02:17:40;;;;;;;1.60;1.50;;;5.20;99.90;;;;;;5094855;28;20046;-81
2020/12/14 02:20:06;;;;;;;1.98;1.77;;;5.20;99.90;;;;;;5113090;28;20494;-81
2020/12/14 02:22:32;;;;;;;1.55;1.45;;;5.30;99.90;;;;;;5112996;28;20026;-81
2020/12/14 02:25:06;;;;;;;1.63;1.48;;;5.30;99.90;;;;;;5113060;28;20114;-82
2020/12/14 02:27:33;;;;;;;2.42;1.60;;;5.30;99.90;;;;;;5113170;28;20413;-81
2020/12/14 02:29:58;;;;;;;1.77;1.67;;;5.20;99.90;;;;;;5112541;28;20032;-81
2020/12/14 02:32:26;;;;;;;1.40;1.30;;;5.20;99.90;;;;;;5113201;28;20471;-81
2020/12/14 02:34:53;;;;;;;1.88;1.77;;;5.20;99.90;;;;;;5113099;28;20544;-81
2020/12/14 02:37:21;;;;;;;1.83;1.67;;;5.20;99.90;;;;;;5113036;28;20030;-81
2020/12/14 02:39:47;;;;;;;2.58;1.52;;;5.20;99.90;;;;;;5113208;28;20027;-81
2020/12/14 02:42:16;;;;;;;1.45;1.35;;;5.20;99.90;;;;;;5112779;28;20114;-81
2020/12/14 02:44:41;;;;;;;1.60;1.50;;;5.20;99.90;;;;;;5094710;28;20035;-81
2020/12/14 02:47:08;;;;;;;1.50;1.40;;;5.10;99.90;;;;;;5113106;28;20027;-81
2020/12/14 02:49:35;;;;;;;1.90;1.65;;;5.20;99.90;;;;;;5094482;28;20028;-81
2020/12/14 02:52:01;;;;;;;1.50;1.40;;;5.10;99.90;;;;;;5112900;28;20081;-81
2020/12/14 02:54:27;;;;;;;1.80;1.42;;;5.10;99.90;;;;;;5112775;28;20020;-81
2020/12/14 02:56:53;;;;;;;1.90;1.80;;;5.10;99.90;;;;;;5113025;28;20031;-81
2020/12/14 02:59:20;;;;;;;1.70;1.60;;;5.10;99.90;;;;;;5112608;28;20074;-81
2020/12/14 03:01:47;;;;;;;2.28;1.33;;;5.10;99.90;;;;;;5112989;28;20032;-81
2020/12/14 03:04:13;;;;;;;1.83;1.73;;;5.10;99.90;;;;;;5112638;28;20053;-81
2020/12/14 03:06:39;;;;;;;1.83;1.73;;;5.10;99.90;;;;;;5112685;28;20035;-81
2020/12/14 03:09:04;;;;;;;1.90;1.70;;;5.10;99.90;;;;;;5115386;28;20119;-81
2020/12/14 03:11:30;;;;;;;1.67;1.58;;;5.10;99.90;;;;;;5116746;28;20398;-81
2020/12/14 03:13:56;;;;;;;2.20;1.52;;;5.00;99.90;;;;;;5116688;28;20055;-81
2020/12/14 03:16:23;;;;;;;1.65;1.55;;;5.00;99.90;;;;;;5116484;28;20062;-80
2020/12/14 03:18:48;;;;;;;1.70;1.60;;;5.00;99.90;;;;;;5116661;28;20028;-81
2020/12/14 03:21:14;;;;;;;4.22;1.70;;;5.00;99.90;;;;;;5116337;28;20695;-81
2020/12/14 03:23:40;;;;;;;1.70;1.60;;;5.00;99.90;;;;;;5098264;28;20543;-81
2020/12/14 03:26:05;;;;;;;1.92;1.83;;;5.00;99.90;;;;;;5114008;28;20130;-81
2020/12/14 03:28:31;;;;;;;3.28;1.88;;;5.00;99.90;;;;;;5116103;28;20745;-81
2020/12/14 03:30:57;;;;;;;1.67;1.58;;;5.00;99.90;;;;;;5098051;28;20161;-81
2020/12/14 03:33:23;;;;;;;1.83;1.63;;;5.00;99.90;;;;;;5116288;28;20407;-80
2020/12/14 03:35:48;;;;;;;1.88;1.60;;;5.00;99.90;;;;;;5097977;28;20092;-81
2020/12/14 03:38:15;;;;;;;1.88;1.77;;;4.90;99.90;;;;;;5116132;28;20106;-81
2020/12/14 03:40:41;;;;;;;1.95;1.75;;;4.90;99.90;;;;;;5115878;28;20112;-81
2020/12/14 03:43:07;;;;;;;1.55;1.45;;;4.90;99.90;;;;;;5097943;28;20360;-81
2020/12/14 03:45:33;;;;;;;1.85;1.75;;;4.90;99.90;;;;;;5097745;28;20036;-81
2020/12/14 03:47:59;;;;;;;2.65;1.50;;;4.90;99.90;;;;;;5115724;28;20540;-81
2020/12/14 03:50:25;;;;;;;1.70;1.60;;;4.90;99.90;;;;;;5116082;28;20028;-81
2020/12/14 03:52:50;;;;;;;1.80;1.70;;;4.90;99.90;;;;;;5116036;28;20119;-81
2020/12/14 03:55:16;;;;;;;1.98;1.60;;;4.80;99.90;;;;;;5115812;28;20054;-80
2020/12/14 03:57:42;;;;;;;1.98;1.88;;;4.90;99.90;;;;;;5115870;28;20454;-81
2020/12/14 04:00:08;;;;;;;2.10;1.67;;;4.90;99.90;;;;;;5097276;28;20028;-81
2020/12/14 04:02:33;;;;;;;2.13;2.03;;;4.90;99.90;;;;;;5097626;28;20024;-81
2020/12/14 04:04:59;;;;;;;3.67;1.60;;;4.90;99.90;;;;;;5115650;28;20045;-81
2020/12/14 04:07:24;;;;;;;1.73;1.63;;;5.00;99.90;;;;;;5115671;28;20016;-81
2020/12/14 04:09:50;;;;;;;1.73;1.63;;;4.90;99.90;;;;;;5097041;28;20036;-80
2020/12/14 04:12:16;;;;;;;1.50;1.40;;;4.90;99.90;;;;;;5115614;28;20045;-81
2020/12/14 04:14:41;;;;;;;1.98;1.20;;;4.90;99.90;;;;;;5115558;28;20020;-81
2020/12/14 04:17:07;;;;;;;1.70;1.60;;;5.00;99.90;;;;;;5097358;28;20023;-81
2020/12/14 04:19:33;;;;;;;1.52;1.42;;;5.00;99.90;;;;;;5114813;28;20023;-81
2020/12/14 04:22:07;;;;;;;1.90;1.80;;;5.00;99.90;;;;;;5115447;28;20019;-81
2020/12/14 04:24:33;;;;;;;1.70;1.60;;;5.00;99.90;;;;;;5114984;28;20077;-81
2020/12/14 04:26:59;;;;;;;1.70;1.60;;;4.90;99.90;;;;;;5115282;28;20075;-81
2020/12/14 04:29:24;;;;;;;1.80;1.70;;;4.90;99.90;;;;;;5115255;28;20067;-81
2020/12/14 04:31:50;;;;;;;1.55;1.45;;;4.90;99.90;;;;;;5096967;28;20027;-81
2020/12/14 04:34:16;;;;;;;1.58;1.48;;;4.90;99.90;;;;;;5115214;28;20432;-81
2020/12/14 04:36:46;;;;;;;1.67;1.58;;;5.00;99.90;;;;;;5114862;28;20031;-80
2020/12/14 04:39:12;;;;;;;2.67;1.33;;;5.00;99.90;;;;;;5096845;28;20027;-81
2020/12/14 04:41:39;;;;;;;1.50;1.40;;;5.00;99.90;;;;;;5115074;28;20074;-81
2020/12/14 04:44:06;;;;;;;1.67;1.58;;;5.00;99.90;;;;;;5114965;28;20032;-81
2020/12/14 04:46:33;;;;;;;1.50;1.40;;;5.00;99.90;;;;;;5114613;28;20080;-81
2020/12/14 04:49:04;;;;;;;1.20;1.10;;;5.00;99.90;;;;;;5114873;28;20475;-81
2020/12/14 04:51:32;;;;;;;1.48;1.38;;;5.00;99.90;;;;;;5114773;28;20526;-81
2020/12/14 04:54:00;;;;;;;1.60;1.50;;;5.00;99.90;;;;;;5114788;28;20020;-81
2020/12/14 04:56:27;;;;;;;1.90;1.80;;;4.90;99.90;;;;;;5114706;28;20055;-81
2020/12/14 04:58:55;;;;;;;2.00;1.83;;;4.90;99.90;;;;;;5111460;28;20024;-81
2020/12/14 05:01:21;;;;;;;1.70;1.60;;;4.90;99.90;;;;;;5108481;28;20020;-81
2020/12/14 05:03:47;;;;;;;3.00;1.50;;;4.90;99.90;;;;;;5111420;28;20556;-81
2020/12/14 05:06:13;;;;;;;2.95;2.05;;;4.90;99.90;;;;;;5096108;28;20111;-81
2020/12/14 05:08:38;;;;;;;1.60;1.50;;;4.80;99.90;;;;;;5114468;28;20055;-81
2020/12/14 05:11:04;;;;;;;1.90;1.80;;;4.80;99.90;;;;;;5114394;28;20676;-81
2020/12/14 05:13:30;;;;;;;1.55;1.45;;;4.80;99.90;;;;;;5096212;28;20038;-81
2020/12/14 05:15:56;;;;;;;1.95;1.55;;;4.80;99.90;;;;;;5114082;28;20038;-81
2020/12/14 05:18:23;;;;;;;2.13;1.27;;;4.80;99.90;;;;;;5114394;28;20082;-81
2020/12/14 05:20:57;;;;;;;1.80;1.70;;;4.80;99.90;;;;;;5114208;28;20039;-81
2020/12/14 05:23:22;;;;;;;3.15;1.40;;;4.90;99.90;;;;;;5095905;28;20380;-82
2020/12/14 05:25:48;;;;;;;2.70;2.28;;;4.90;99.90;;;;;;5113693;28;20050;-81
2020/12/14 05:28:16;;;;;;;1.58;1.48;;;4.90;99.90;;;;;;5113996;28;20444;-81
2020/12/14 05:30:44;;;;;;;1.17;1.10;;;5.00;99.90;;;;;;5112978;28;20056;-81
2020/12/14 05:33:12;;;;;;;1.63;1.50;;;5.00;99.90;;;;;;5088953;28;20028;-80
2020/12/14 05:35:40;;;;;;;2.83;1.92;;;5.00;99.90;;;;;;5113592;28;20092;-81
2020/12/14 05:38:30;;;;;;;2.28;1.88;;;5.00;99.90;;;;;;5113938;28;20028;-81
2020/12/14 05:41:04;;;;;;;1.58;1.48;;;5.00;99.90;;;;;;5083435;28;20035;-81
2020/12/14 05:43:32;;;;;;;3.35;1.75;;;5.00;99.90;;;;;;5081016;28;20395;-81
2020/12/14 05:46:15;;;;;;;2.40;1.58;;;5.10;99.90;;;;;;5093400;28;20031;-81
2020/12/14 05:48:41;;;;;;;3.65;1.58;;;5.00;99.90;;;;;;5093231;28;20085;-81
2020/12/14 05:51:08;;;;;;;2.03;1.83;;;5.00;99.90;;;;;;5093328;28;20024;-81
2020/12/14 05:53:55;;;;;;;1.83;1.73;;;5.00;99.90;;;;;;5086875;28;20027;-81
2020/12/14 05:56:24;;;;;;;2.15;1.85;;;5.10;99.90;;;;;;5113612;28;20103;-81
2020/12/14 05:58:54;;;;;;;1.60;1.50;;;5.10;99.90;;;;;;5113623;28;20102;-81
2020/12/14 06:01:21;;;;;;;3.50;1.70;;;5.10;99.90;;;;;;5089863;28;20033;-81
2020/12/14 06:03:48;;;;;;;2.10;1.90;;;5.00;99.90;;;;;;5073086;28;20028;-81
2020/12/14 06:06:16;;;;;;;2.28;2.17;;;5.00;99.90;;;;;;5072799;28;20028;-81
2020/12/14 06:08:45;;;;;;;2.25;2.15;;;4.80;99.90;;;;;;5062852;28;20032;-81
2020/12/14 06:11:15;;;;;;;4.32;2.40;;;4.70;99.90;;;;;;5087642;28;20066;-81
2020/12/14 06:13:48;;;;;;;2.58;2.38;;;4.60;99.90;;;;;;5095144;28;20053;-81
2020/12/14 06:16:22;;;;;;;2.22;2.05;;;4.60;99.90;;;;;;5113028;28;20031;-81
2020/12/14 06:18:48;;;;;;;2.00;1.90;;;4.60;99.90;;;;;;5095132;28;20020;-81
2020/12/14 06:21:22;;;;;;;2.30;2.10;;;4.60;99.90;;;;;;5084104;28;20032;-81
2020/12/14 06:23:49;;;;;;;5.43;2.70;;;4.60;99.90;;;;;;5092888;28;20030;-81
2020/12/14 06:26:15;;;;;;;4.28;3.08;;;4.60;99.90;;;;;;5105252;28;20507;-81
2020/12/14 06:28:48;;;;;;;2.78;2.58;;;4.60;99.90;;;;;;5112967;28;20092;-81
2020/12/14 06:31:37;;;;;;;2.30;2.10;;;4.60;99.90;;;;;;5112973;28;20024;-81
2020/12/14 06:34:05;;;;;;;2.38;2.17;;;4.70;99.90;;;;;;5112885;28;20019;-80
2020/12/14 06:36:41;;;;;;;3.05;2.75;;;4.70;99.90;;;;;;5113034;28;20048;-81
2020/12/14 06:39:47;;;;;;;2.72;2.53;;;4.70;99.90;;;;;;5112899;28;20108;-81
2020/12/14 06:42:13;;;;;;;3.72;2.40;;;4.60;99.90;;;;;;5092507;28;20023;-81
2020/12/14 06:44:44;;;;;;;2.40;2.20;;;4.60;99.90;;;;;;5078424;28;20028;-81
2020/12/14 06:47:15;;;;;;;2.78;2.58;;;4.60;99.90;;;;;;5096925;28;20155;-81
2020/12/14 06:49:42;;;;;;;3.78;2.67;;;4.60;99.90;;;;;;5098909;28;20020;-81
2020/12/14 06:52:09;;;;;;;2.72;2.28;;;4.60;99.90;;;;;;5116989;28;20027;-81
2020/12/14 06:54:47;;;;;;;5.90;2.50;;;4.60;99.90;;;;;;5116512;28;20475;-80
2020/12/14 06:57:19;;;;;;;2.45;2.28;;;4.70;99.90;;;;;;5115963;28;20027;-81
2020/12/14 06:59:52;;;;;;;2.30;2.20;;;4.70;99.90;;;;;;5116563;28;20027;-80
2020/12/14 07:02:18;;;;;;;3.00;2.22;;;4.70;99.90;;;;;;5091895;28;20050;-80
2020/12/14 07:04:45;;;;;;;2.65;2.45;;;4.70;99.90;;;;;;5115712;28;20511;-81
2020/12/14 07:07:10;;;;;;;4.72;2.30;;;4.80;99.90;;;;;;5116233;28;20020;-80
2020/12/14 07:09:40;;;;;;;3.58;2.53;;;4.80;99.90;;;;;;5116940;28;20100;-74
2020/12/14 07:12:09;;;;;;;2.33;2.17;;;4.90;99.90;;;;;;5116581;28;20023;-74
2020/12/14 07:14:46;;;;;;;3.53;2.28;;;4.90;99.90;;;;;;5098771;28;20020;-74
2020/12/14 07:17:22;;;;;;;2.75;2.50;;;4.90;99.90;;;;;;5116917;28;20047;-74
2020/12/14 07:19:49;;;;;;;3.67;2.83;;;4.90;99.90;;;;;;5097852;28;20035;-74
2020/12/14 07:22:39;;;;;;;3.15;2.83;;;4.90;99.90;;;;;;5116520;28;20042;-74
2020/12/14 07:25:05;;;;;;;2.38;2.17;;;4.90;99.90;;;;;;5115144;28;20499;-74
2020/12/14 07:27:33;;;;;;;2.60;1.85;;;4.90;99.90;;;;;;5116456;28;20028;-74
2020/12/14 07:30:07;;;;;;;2.75;2.40;;;4.90;99.90;;;;;;5116237;28;20047;-74
2020/12/14 07:32:34;;;;;;;4.55;3.85;;;4.90;99.90;;;;;;5099680;28;20016;-74
2020/12/14 07:35:06;;;;;;;5.03;4.10;;;4.90;99.90;;;;;;5095293;28;20026;-74
2020/12/14 07:37:32;;;;;;;6.90;4.68;;;5.00;99.90;;;;;;5077559;28;20399;-74
2020/12/14 07:39:58;;;;;;;4.90;4.40;;;5.00;99.90;;;;;;5095831;28;20024;-74
2020/12/14 07:42:24;;;;;;;3.70;3.33;;;5.00;99.90;;;;;;5077100;28;20115;-74
2020/12/14 07:44:50;;;;;;;3.33;2.92;;;5.00;99.90;;;;;;5095503;28;20502;-73
2020/12/14 07:47:22;;;;;;;3.20;2.95;;;5.00;99.90;;;;;;5077674;28;20060;-74
2020/12/14 07:49:47;;;;;;;4.10;3.42;;;5.10;99.90;;;;;;5095352;28;20036;-74
2020/12/14 07:52:27;;;;;;;2.95;2.53;;;5.10;99.90;;;;;;5094757;28;20042;-74
2020/12/14 07:55:00;;;;;;;5.47;4.05;;;5.10;99.90;;;;;;5100090;28;20024;-74
2020/12/14 07:57:31;;;;;;;4.38;3.40;;;5.10;99.90;;;;;;5065554;28;20036;-81
2020/12/14 07:59:57;;;;;;;3.72;3.40;;;5.10;99.90;;;;;;5097983;28;20028;-81
2020/12/14 08:02:25;;;;;;;7.45;3.08;;;5.20;99.90;;;;;;5101299;28;20031;-81
2020/12/14 08:04:58;;;;;;;4.00;3.10;;;5.30;99.90;;;;;;5092872;28;20032;-81
2020/12/14 08:07:28;;;;;;;5.10;3.55;;;5.30;99.90;;;;;;5075254;28;20016;-81
2020/12/14 08:09:54;;;;;;;5.82;4.25;;;5.30;99.90;;;;;;5094412;28;20035;-81
2020/12/14 08:12:19;;;;;;;14.52;8.90;;;5.40;99.90;;;;;;5100900;28;20020;-81
2020/12/14 08:14:48;;;;;;;25.17;14.27;;;5.30;99.90;;;;;;5094525;28;20027;-81
2020/12/14 08:17:14;;;;;;;17.42;11.32;;;5.30;99.90;;;;;;5094304;28;20101;-80
2020/12/14 08:19:40;;;;;;;12.05;9.57;;;5.30;99.90;;;;;;5094417;28;20646;-81
2020/12/14 08:22:10;;;;;;;12.38;8.50;;;5.30;99.90;;;;;;5077554;28;20030;-81
2020/12/14 08:24:37;;;;;;;9.20;6.80;;;5.30;99.90;;;;;;5094199;28;20035;-81
2020/12/14 08:27:09;;;;;;;7.50;5.63;;;5.30;99.90;;;;;;5101880;28;20048;-81
2020/12/14 08:29:36;;;;;;;5.80;5.22;;;5.30;99.90;;;;;;5094754;28;20107;-81
2020/12/14 08:32:02;;;;;;;10.43;7.10;;;5.30;99.90;;;;;;5095083;28;20397;-81
2020/12/14 08:34:37;;;;;;;9.98;8.07;;;5.40;99.90;;;;;;5094300;28;20012;-81
2020/12/14 08:37:04;;;;;;;11.50;7.60;;;5.40;99.90;;;;;;5085004;28;20027;-81
2020/12/14 08:39:30;;;;;;;7.90;6.50;;;5.40;99.90;;;;;;5077091;28;20396;-81
2020/12/14 08:42:08;;;;;;;10.15;7.13;;;5.50;99.90;;;;;;5100870;28;20032;-81
2020/12/14 08:44:34;;;;;;;10.90;7.63;;;5.50;99.90;;;;;;5094037;28;20032;-81
2020/12/14 08:47:00;;;;;;;11.18;8.90;;;5.50;99.90;;;;;;5104732;28;20120;-81
2020/12/14 08:49:27;;;;;;;15.07;9.90;;;5.50;99.90;;;;;;5081249;28;20115;-81
2020/12/14 08:51:53;;;;;;;9.23;5.43;;;5.60;99.90;;;;;;5099858;28;20020;-81
2020/12/14 08:54:20;;;;;;;6.22;5.15;;;5.60;99.90;;;;;;5093926;28;20016;-81
2020/12/14 08:56:47;;;;;;;7.18;5.22;;;5.70;99.90;;;;;;5093815;28;20051;-81
2020/12/14 08:59:15;;;;;;;6.30;5.32;;;5.70;99.90;;;;;;5102642;28;20027;-81
2020/12/14 09:02:04;;;;;;;6.05;5.45;;;5.90;99.90;;;;;;5093690;28;20028;-81
2020/12/14 09:04:36;;;;;;;6.00;5.10;;;5.90;99.90;;;;;;5083623;28;20361;-81
2020/12/14 09:07:02;;;;;;;;;;;6.10;99.90;;;;;;5085880;28;20020;-82
2020/12/14 09:09:37;;;;;;;9.27;6.22;;;6.10;99.90;;;;;;5088293;28;19908;-82
2020/12/14 09:12:10;;;;;;;17.05;8.50;;;6.10;99.90;;;;;;5093907;28;20020;-81
2020/12/14 09:14:36;;;;;;;14.48;9.95;;;6.20;99.90;;;;;;5099822;28;20032;-82
2020/12/14 09:17:04;;;;;;;15.98;10.55;;;6.30;99.90;;;;;;5073919;28;20034;-82
2020/12/14 09:19:32;;;;;;;18.65;11.10;;;6.30;99.90;;;;;;5101988;28;20024;-82
2020/12/14 09:22:00;;;;;;;33.45;11.77;;;6.30;99.90;;;;;;5093616;28;20048;-82
2020/12/14 09:24:42;;;;;;;16.90;11.52;;;6.40;99.90;;;;;;5093150;28;20031;-79
2020/12/14 09:27:13;;;;;;;21.27;11.10;;;6.40;99.90;;;;;;5069702;28;20134;-80
2020/12/14 09:30:06;;;;;;;15.10;11.00;;;6.40;99.90;;;;;;5073933;28;20068;-80
2020/12/14 09:32:31;;;;;;;;;;;6.40;99.90;;;;;;5083606;28;20035;-81
2020/12/14 09:35:05;;;;;;;18.27;12.32;;;6.40;99.90;;;;;;5089352;28;19903;-80
2020/12/14 09:37:31;;;;;;;21.52;12.65;;;6.40;99.90;;;;;;5064423;28;20356;-80
2020/12/14 09:39:57;;;;;;;21.85;13.73;;;6.40;99.90;;;;;;5090906;28;20034;-80
2020/12/14 09:42:23;;;;;;;20.45;13.68;;;6.40;99.90;;;;;;5090302;28;20028;-81
2020/12/14 09:44:56;;;;;;;19.38;13.25;;;6.50;99.90;;;;;;5089650;28;20024;-81
2020/12/14 09:47:25;;;;;;;28.20;14.30;;;6.50;99.90;;;;;;5090356;28;20110;-80
2020/12/14 09:49:51;;;;;;;25.45;14.63;;;6.50;99.90;;;;;;5072208;28;20634;-80
2020/12/14 09:52:16;;;;;;;22.38;14.45;;;6.60;99.90;;;;;;5090171;28;20107;-81
2020/12/14 09:54:42;;;;;;;22.67;13.98;;;6.70;99.90;;;;;;5089924;28;20091;-80
2020/12/14 09:57:07;;;;;;;23.65;14.10;;;6.70;99.90;;;;;;5090429;28;20077;-80
2020/12/14 09:59:33;;;;;;;22.88;14.35;;;6.80;99.90;;;;;;5089332;28;20610;-80
2020/12/14 10:01:59;;;;;;;27.90;15.38;;;6.70;99.90;;;;;;5090210;28;20031;-81
2020/12/14 10:04:24;;;;;;;21.17;14.20;;;6.80;99.90;;;;;;5090113;28;20375;-80
2020/12/14 10:06:50;;;;;;;21.67;14.50;;;6.80;99.90;;;;;;5089654;28;20020;-81
2020/12/14 10:09:16;;;;;;;20.35;13.13;;;6.80;99.90;;;;;;5090370;28;20119;-81
2020/12/14 10:11:42;;;;;;;20.20;13.13;;;6.90;99.90;;;;;;5089927;28;20699;-80
2020/12/14 10:14:07;;;;;;;24.02;14.82;;;6.90;99.90;;;;;;5089156;28;20507;-81
2020/12/14 10:16:34;;;;;;;21.95;14.93;;;6.90;99.90;;;;;;5072922;28;20119;-81
2020/12/14 10:19:00;;;;;;;23.00;13.82;;;7.00;99.90;;;;;;5065806;28;20031;-81
2020/12/14 10:21:26;;;;;;;26.58;15.60;;;7.00;99.90;;;;;;5091949;28;20543;-80
2020/12/14 10:23:52;;;;;;;26.30;15.63;;;7.10;99.90;;;;;;5073947;28;20103;-81
2020/12/14 10:26:20;;;;;;;27.13;15.82;;;7.10;99.90;;;;;;5092141;28;20074;-82
2020/12/14 10:28:46;;;;;;;23.52;14.85;;;7.10;99.90;;;;;;5092161;28;20028;-82
2020/12/14 10:31:12;;;;;;;24.80;16.40;;;7.20;99.90;;;;;;5090410;28;20023;-80
2020/12/14 10:33:38;;;;;;;24.38;16.20;;;7.20;99.90;;;;;;5091773;28;20482;-79
2020/12/14 10:36:22;;;;;;;27.73;15.13;;;7.30;99.90;;;;;;5074178;28;20554;-81
2020/12/14 10:38:48;;;;;;;25.55;15.88;;;7.30;99.90;;;;;;5086541;28;20027;-74
2020/12/14 10:41:17;;;;;;;26.35;15.25;;;7.40;99.90;;;;;;5073310;28;20050;-75
2020/12/14 10:43:43;;;;;;;23.98;15.32;;;7.40;99.90;;;;;;5091328;28;20024;-76
2020/12/14 10:46:08;;;;;;;24.85;15.57;;;7.40;99.90;;;;;;5091713;28;20024;-74
2020/12/14 10:48:34;;;;;;;22.70;14.48;;;7.40;99.90;;;;;;5091428;28;20033;-74
2020/12/14 10:51:00;;;;;;;22.83;15.82;;;7.50;99.90;;;;;;5069849;28;20101;-74
2020/12/14 10:53:25;;;;;;;26.13;15.82;;;7.50;99.90;;;;;;5088633;28;20046;-75
2020/12/14 10:55:51;;;;;;;23.20;14.73;;;7.70;99.90;;;;;;5090767;28;20027;-74
2020/12/14 10:58:17;;;;;;;26.58;14.80;;;7.70;99.90;;;;;;5087595;28;20139;-74
2020/12/14 11:00:43;;;;;;;24.80;14.90;;;7.80;99.90;;;;;;5069774;28;20106;-74
2020/12/14 11:03:09;;;;;;;24.15;15.63;;;7.80;99.90;;;;;;5084425;28;20027;-74
2020/12/14 11:05:34;;;;;;;27.65;14.55;;;7.80;99.90;;;;;;5087907;28;20103;-75
2020/12/14 11:08:00;;;;;;;24.38;14.18;;;7.90;99.90;;;;;;5088035;28;20024;-74
2020/12/14 11:10:26;;;;;;;16.38;11.30;;;7.90;99.90;;;;;;5087705;28;20032;-75
2020/12/14 11:12:51;;;;;;;21.35;13.00;;;8.00;99.90;;;;;;5087824;28;20507;-74
2020/12/14 11:15:17;;;;;;;19.05;14.10;;;8.10;99.90;;;;;;5087811;28;20073;-74
2020/12/14 11:17:44;;;;;;;23.27;14.23;;;8.10;99.90;;;;;;5087815;28;20020;-74
2020/12/14 11:20:10;;;;;;;22.75;14.15;;;8.20;99.90;;;;;;5070356;28;20111;-75
2020/12/14 11:22:36;;;;;;;19.92;13.27;;;8.20;99.90;;;;;;5087945;28;20039;-75
2020/12/14 11:25:06;;;;;;;21.92;13.48;;;8.30;99.90;;;;;;5087620;28;20069;-75
2020/12/14 11:27:33;;;;;;;23.65;14.27;;;8.30;99.90;;;;;;5085402;28;20043;-75
2020/12/14 11:29:58;;;;;;;30.88;14.75;;;8.30;99.90;;;;;;5092492;28;20024;-75
2020/12/14 11:32:24;;;;;;;20.35;13.90;;;8.30;99.90;;;;;;5111853;28;20023;-75
2020/12/14 11:34:50;;;;;;;24.55;13.80;;;8.40;99.90;;;;;;5112425;28;20015;-75
2020/12/14 11:37:18;;;;;;;22.98;14.40;;;8.50;99.90;;;;;;5111591;28;20840;-75
2020/12/14 11:39:44;;;;;;;21.25;14.70;;;8.50;99.90;;;;;;5111896;28;20026;-75
2020/12/14 11:42:09;;;;;;;22.65;14.73;;;8.50;99.90;;;;;;5112517;28;20020;-76
2020/12/14 11:44:35;;;;;;;21.27;13.95;;;8.60;99.90;;;;;;5093285;28;20034;-75
2020/12/14 11:47:00;;;;;;;21.23;14.70;;;8.60;99.90;;;;;;5094216;28;20035;-75
2020/12/14 11:49:26;;;;;;;25.27;14.85;;;8.60;99.90;;;;;;5112451;28;20031;-75
2020/12/14 11:51:52;;;;;;;26.88;14.98;;;8.70;99.90;;;;;;5111259;28;20026;-76
2020/12/14 11:54:18;;;;;;;25.27;15.38;;;8.70;99.90;;;;;;5094586;28;20360;-76
2020/12/14 11:56:45;;;;;;;26.17;15.60;;;8.80;99.90;;;;;;5112108;28;20103;-75
2020/12/14 11:59:11;;;;;;;27.95;16.38;;;8.80;99.90;;;;;;5111504;28;20020;-76
2020/12/14 12:01:37;;;;;;;31.77;15.43;;;8.90;99.90;;;;;;5092897;28;20024;-74
2020/12/14 12:04:02;;;;;;;26.98;16.20;;;8.90;99.90;;;;;;5092627;28;20036;-74
2020/12/14 12:06:29;;;;;;;22.13;15.38;;;8.90;99.90;;;;;;5110943;28;20034;-76
2020/12/14 12:08:55;;;;;;;25.95;16.83;;;9.00;99.90;;;;;;5111733;28;20020;-75
2020/12/14 12:11:21;;;;;;;24.05;17.00;;;9.00;99.90;;;;;;5092733;28;20016;-75
2020/12/14 12:13:48;;;;;;;27.85;15.75;;;9.00;99.90;;;;;;5111109;28;20027;-74
2020/12/14 12:16:13;;;;;;;29.48;15.85;;;9.00;99.90;;;;;;5111154;28;20495;-75
2020/12/14 12:18:39;;;;;;;24.35;14.98;;;9.10;99.90;;;;;;5092814;28;20030;-75
2020/12/14 12:21:06;;;;;;;23.38;15.50;;;9.20;99.90;;;;;;5092977;28;20019;-74
2020/12/14 12:23:32;;;;;;;21.27;14.77;;;9.10;99.90;;;;;;5110064;28;20106;-74
2020/12/14 12:25:57;;;;;;;19.38;14.75;;;9.10;99.90;;;;;;5110423;28;20102;-75
2020/12/14 12:28:24;;;;;;;25.58;15.68;;;9.10;99.90;;;;;;5110672;28;20032;-74
2020/12/14 12:30:49;;;;;;;25.83;15.27;;;9.10;99.90;;;;;;5091118;28;20417;-74
2020/12/14 12:33:15;;;;;;;19.02;14.68;;;9.10;99.90;;;;;;5091476;28;20107;-74
2020/12/14 12:35:41;;;;;;;23.33;14.00;;;9.10;99.90;;;;;;5109950;28;20772;-74
2020/12/14 12:38:06;;;;;;;20.10;13.18;;;9.10;99.90;;;;;;5108836;28;20514;-74
2020/12/14 12:40:32;;;;;;;21.35;13.23;;;9.20;99.90;;;;;;5108661;28;20027;-75
2020/12/14 12:42:58;;;;;;;31.42;15.00;;;9.10;99.90;;;;;;5093479;28;20034;-74
2020/12/14 12:45:24;;;;;;;23.13;12.93;;;9.20;99.90;;;;;;5094389;28;20040;-74
2020/12/14 12:47:49;;;;;;;25.40;14.18;;;9.20;99.90;;;;;;5112983;28;20383;-74
2020/12/14 12:50:15;;;;;;;18.85;13.40;;;9.20;99.90;;;;;;5094495;28;20363;-75
2020/12/14 12:52:41;;;;;;;21.23;13.77;;;9.30;99.90;;;;;;5112581;28;20188;-74